Horsepen, Virginia
Current Conditions -  °F | °C
As of 8:52 PM on Sunday 23 Nov 2014 (Local Time) from KBLF Reporting Station
Light Rain Light Rain  
Wind Chill: 54°   Ceiling: 1000
Heat Index: 54°   Visibility: 4mi
Dew Point: 49°   Wind: 16mph
Humidity: 83%   Direction: 140°SE
Pressure: 29.7"   Gusts: 28mph
Location:  37.23°N, 81.52°W
Report Text: KBLF 240152Z AUTO 14014G24KT 090V160 4SM -RA BKN010 BKN017 OVC022 12/09 A2970 RMK AO2 PK WND 15026/0138 SLP045 P0010 T01220094
Loading
Personal Weather Stations






























Interactive Weather Map New forecast layout! Learn more

10-Day Weather Forecast

Advertisements
Track Severe Weather on mobile